createdAt,value
2023-12-27T00:00:05.199Z,0
2023-12-27T00:15:27.542Z,0
2023-12-27T00:25:27.515Z,0
2023-12-27T00:45:27.471Z,0
2023-12-27T00:55:27.468Z,0
2023-12-27T01:00:05.123Z,0
2023-12-27T01:15:27.454Z,0
2023-12-27T01:25:27.419Z,0
2023-12-27T01:35:27.439Z,0
2023-12-27T01:45:27.449Z,0
2023-12-27T01:55:27.446Z,0
2023-12-27T02:00:05.185Z,0
2023-12-27T02:05:27.465Z,0
2023-12-27T02:15:27.448Z,0
2023-12-27T02:25:27.408Z,0
2023-12-27T02:35:27.484Z,0
2023-12-27T02:45:27.448Z,0
2023-12-27T02:55:27.392Z,0
2023-12-27T03:00:05.152Z,0
2023-12-27T03:05:27.457Z,0
2023-12-27T03:15:27.448Z,0
2023-12-27T03:25:27.387Z,0
2023-12-27T03:35:27.377Z,0
2023-12-27T03:45:27.403Z,0
2023-12-27T03:55:27.362Z,0
2023-12-27T04:00:05.199Z,0
2023-12-27T04:05:27.379Z,0
2023-12-27T04:15:27.419Z,0
2023-12-27T04:25:27.359Z,0
2023-12-27T04:35:27.350Z,0
2023-12-27T04:45:27.366Z,0
2023-12-27T04:55:27.378Z,0
2023-12-27T05:00:05.137Z,0
2023-12-27T05:15:27.351Z,0
2023-12-27T05:25:27.316Z,0
2023-12-27T05:45:27.339Z,0
2023-12-27T05:55:27.304Z,0
2023-12-27T06:00:05.150Z,0
2023-12-27T06:15:27.350Z,0
2023-12-27T06:25:27.318Z,0
2023-12-27T06:35:27.288Z,0
2023-12-27T06:45:27.318Z,0
2023-12-27T06:55:27.281Z,0
2023-12-27T07:00:05.124Z,0
2023-12-27T07:05:27.328Z,0
2023-12-27T07:15:27.343Z,0
2023-12-27T07:25:27.259Z,0
2023-12-27T07:35:27.254Z,0
2023-12-27T07:45:27.279Z,0
2023-12-27T07:55:27.255Z,0
2023-12-27T08:00:05.149Z,0
2023-12-27T08:05:27.394Z,0
2023-12-27T08:15:27.281Z,0
2023-12-27T08:25:27.285Z,0
2023-12-27T08:35:27.256Z,0
2023-12-27T08:45:27.234Z,0
2023-12-27T08:55:27.231Z,0
2023-12-27T09:00:05.148Z,0
2023-12-27T09:05:27.257Z,0
2023-12-27T09:15:27.435Z,0
2023-12-27T09:25:27.242Z,0
2023-12-27T09:45:27.231Z,0
2023-12-27T09:53:52.961Z,0
2023-12-27T10:00:05.139Z,0
2023-12-27T10:03:54.886Z,0
2023-12-27T10:13:59.637Z,0
2023-12-27T10:33:54.669Z,0
2023-12-27T10:43:54.627Z,0
2023-12-27T10:53:54.621Z,0
2023-12-27T11:00:05.199Z,0
2023-12-27T11:03:54.674Z,0
2023-12-27T11:13:54.613Z,0
2023-12-27T11:33:54.671Z,0
2023-12-27T11:43:54.615Z,0
2023-12-27T11:53:54.647Z,0
2023-12-27T12:00:05.176Z,0
2023-12-27T12:03:54.622Z,0
2023-12-27T12:13:54.606Z,0
2023-12-27T12:23:54.594Z,0
2023-12-27T12:33:54.645Z,0
2023-12-27T12:43:54.640Z,0
2023-12-27T12:53:54.604Z,0
2023-12-27T13:00:05.136Z,0
2023-12-27T13:03:54.597Z,0
2023-12-27T13:13:54.682Z,0
2023-12-27T13:23:54.563Z,0
2023-12-27T13:33:54.628Z,0
2023-12-27T13:43:54.561Z,0
2023-12-27T13:53:54.546Z,0
2023-12-27T14:00:05.252Z,0
2023-12-27T14:03:54.636Z,0
2023-12-27T14:13:54.566Z,0
2023-12-27T14:23:54.561Z,0
2023-12-27T14:33:54.566Z,0
2023-12-27T14:43:54.558Z,0
2023-12-27T15:03:54.616Z,0
2023-12-27T15:13:54.537Z,0
2023-12-27T15:27:57.321Z,0.1
2023-12-27T15:28:25.175Z,0.2
2023-12-27T15:29:33.496Z,0.3
2023-12-27T15:37:59.853Z,0.5
2023-12-27T15:38:07.597Z,0.6
2023-12-27T15:38:08.728Z,0.7
2023-12-27T15:42:49.786Z,1
2023-12-27T15:42:53.265Z,1.1
2023-12-27T15:48:40.526Z,1.2
2023-12-27T15:51:45.237Z,1.3
2023-12-27T15:51:51.202Z,1.4
2023-12-27T15:53:43.897Z,1.5
2023-12-27T15:54:28.177Z,1.6
2023-12-27T15:55:39.617Z,1.7
2023-12-27T16:05:39.649Z,0
2023-12-27T16:15:40.966Z,0
2023-12-27T16:25:39.605Z,0
2023-12-27T16:35:39.641Z,0
2023-12-27T16:45:39.662Z,0
2023-12-27T16:55:39.636Z,0
2023-12-27T17:00:05.116Z,0
2023-12-27T17:05:39.594Z,0
2023-12-27T17:15:39.651Z,0
2023-12-27T17:25:39.578Z,0
2023-12-27T17:35:39.598Z,0
2023-12-27T17:45:39.648Z,0
2023-12-27T17:55:39.580Z,0
2023-12-27T18:00:05.263Z,0
2023-12-27T18:05:39.602Z,0
2023-12-27T18:15:39.682Z,0
2023-12-27T18:25:39.605Z,0
2023-12-27T18:35:39.636Z,0
2023-12-27T18:45:39.608Z,0
2023-12-27T18:55:39.589Z,0
2023-12-27T19:00:05.102Z,0
2023-12-27T19:15:39.658Z,0
2023-12-27T19:25:39.587Z,0
2023-12-27T19:45:39.669Z,0
2023-12-27T19:55:39.586Z,0
2023-12-27T20:00:05.084Z,0
2023-12-27T20:15:47.186Z,0
2023-12-27T20:25:39.587Z,0
2023-12-27T20:35:39.552Z,0
2023-12-27T20:45:39.613Z,0
2023-12-27T20:55:39.526Z,0
2023-12-27T21:00:06.284Z,0
2023-12-27T21:05:39.562Z,0
2023-12-27T21:15:39.542Z,0
2023-12-27T21:25:39.551Z,0
2023-12-27T21:35:39.534Z,0
2023-12-27T21:45:39.626Z,0
2023-12-27T21:55:39.518Z,0
2023-12-27T22:00:05.124Z,0
2023-12-27T22:05:39.599Z,0
2023-12-27T22:15:44.599Z,0
2023-12-27T22:25:39.556Z,0
2023-12-27T22:35:39.524Z,0
2023-12-27T22:45:39.549Z,0
2023-12-27T22:55:39.506Z,0
2023-12-27T23:00:05.165Z,0
2023-12-27T23:05:39.566Z,0
2023-12-27T23:15:39.781Z,0
2023-12-27T23:25:39.556Z,0
2023-12-27T23:45:39.573Z,0
2023-12-27T23:55:39.497Z,0
